createdAt,value
2022-10-18T00:02:23.078Z,101.00
2022-10-18T00:05:29.045Z,98.38
2022-10-18T00:08:34.607Z,106.25
2022-10-18T00:11:40.705Z,102.38
2022-10-18T00:14:51.162Z,98.45
2022-10-18T00:17:56.519Z,98.32
2022-10-18T00:21:07.863Z,101.63
2022-10-18T00:24:13.227Z,106.75
2022-10-18T00:27:18.587Z,103.13
2022-10-18T00:30:26.136Z,105.35
2022-10-18T00:33:31.858Z,97.47
2022-10-18T00:36:37.558Z,94.10
2022-10-18T00:39:44.104Z,99.13
2022-10-18T00:42:49.676Z,103.70
2022-10-18T00:45:55.152Z,106.43
2022-10-18T00:49:03.995Z,96.28
2022-10-18T00:52:15.820Z,107.65
2022-10-18T00:55:21.923Z,85.72
2022-10-18T00:58:27.490Z,78.45
2022-10-18T01:01:32.783Z,73.10
2022-10-18T01:04:38.150Z,73.53
2022-10-18T01:07:55.290Z,79.40
2022-10-18T01:11:18.520Z,76.90
2022-10-18T01:14:50.019Z,81.45
2022-10-18T01:18:32.312Z,82.38
2022-10-18T01:22:02.841Z,87.88
2022-10-18T01:25:32.843Z,81.85
2022-10-18T01:29:25.981Z,80.28
2022-10-18T01:32:37.919Z,81.75
2022-10-18T01:36:22.970Z,81.60
2022-10-18T01:39:35.905Z,74.97
2022-10-18T01:42:59.911Z,78.63
2022-10-18T01:46:06.021Z,86.30
2022-10-18T01:49:29.272Z,83.72
2022-10-18T01:52:34.655Z,80.03
2022-10-18T01:56:11.026Z,69.65
2022-10-18T01:59:54.526Z,68.53
2022-10-18T02:03:18.129Z,79.63
2022-10-18T02:06:32.448Z,72.55
2022-10-18T02:09:46.932Z,61.13
2022-10-18T02:12:55.370Z,59.20
2022-10-18T02:16:08.423Z,65.35
2022-10-18T02:19:20.883Z,66.47
2022-10-18T02:22:31.504Z,65.45
2022-10-18T02:25:38.687Z,60.15
2022-10-18T02:28:45.948Z,58.47
2022-10-18T02:32:02.759Z,61.58
2022-10-18T02:35:24.958Z,62.67
2022-10-18T02:38:32.903Z,59.63
2022-10-18T02:41:38.976Z,55.30
2022-10-18T02:44:44.293Z,54.60
2022-10-18T02:47:50.125Z,57.88
2022-10-18T02:50:55.562Z,57.63
2022-10-18T02:54:01.190Z,51.35
2022-10-18T02:57:07.073Z,45.20
2022-10-18T03:00:13.018Z,52.33
2022-10-18T03:03:18.680Z,50.58
2022-10-18T03:06:24.019Z,48.78
2022-10-18T03:09:29.201Z,44.55
2022-10-18T03:12:34.777Z,46.30
2022-10-18T03:15:40.600Z,46.20
2022-10-18T03:18:46.213Z,46.08
2022-10-18T03:21:51.715Z,50.10
2022-10-18T03:24:56.835Z,40.13
2022-10-18T03:28:02.141Z,40.50
2022-10-18T03:31:07.920Z,41.78
2022-10-18T03:34:13.336Z,45.17
2022-10-18T03:37:18.802Z,44.10
2022-10-18T03:40:24.594Z,44.95
2022-10-18T03:43:30.473Z,53.22
2022-10-18T03:46:35.560Z,49.60
2022-10-18T03:49:40.713Z,50.55
2022-10-18T03:52:46.187Z,48.40
2022-10-18T03:55:55.887Z,49.17
2022-10-18T03:59:01.335Z,48.25
2022-10-18T04:02:07.109Z,51.35
2022-10-18T04:05:14.361Z,41.63
2022-10-18T04:08:20.409Z,43.05
2022-10-18T04:11:25.828Z,54.28
2022-10-18T04:14:31.394Z,52.22
2022-10-18T04:17:37.354Z,56.90
2022-10-18T04:20:42.702Z,55.58
2022-10-18T04:23:49.728Z,61.75
2022-10-18T04:26:55.033Z,54.28
2022-10-18T04:30:00.434Z,54.67
2022-10-18T04:33:06.028Z,52.22
2022-10-18T04:36:11.605Z,54.75
2022-10-18T04:39:18.182Z,56.58
2022-10-18T04:42:23.849Z,62.22
2022-10-18T04:45:29.322Z,53.05
2022-10-18T04:48:34.975Z,55.25
2022-10-18T04:51:40.847Z,53.25
2022-10-18T04:54:46.297Z,46.13
2022-10-18T04:57:53.594Z,45.70
2022-10-18T05:00:59.142Z,46.22
2022-10-18T05:04:05.273Z,59.97
2022-10-18T05:07:11.183Z,71.35
2022-10-18T05:10:16.848Z,101.85
2022-10-18T05:13:22.494Z,68.88
2022-10-18T05:16:28.947Z,68.28
2022-10-18T05:19:34.395Z,69.40
2022-10-18T05:22:39.780Z,67.25
2022-10-18T05:25:44.801Z,67.20
2022-10-18T05:28:50.981Z,64.18
2022-10-18T05:31:57.251Z,55.47
2022-10-18T05:35:03.066Z,57.53
2022-10-18T05:38:08.793Z,55.35
2022-10-18T05:41:14.886Z,61.17
2022-10-18T05:44:20.444Z,58.63
2022-10-18T05:47:25.933Z,64.90
2022-10-18T05:50:35.425Z,69.53
2022-10-18T05:53:43.460Z,68.13
2022-10-18T05:56:48.702Z,63.50
2022-10-18T05:59:54.028Z,75.43
2022-10-18T06:03:00.516Z,64.32
2022-10-18T06:06:11.154Z,66.45
2022-10-18T06:09:16.130Z,65.43
2022-10-18T06:12:21.385Z,66.93
2022-10-18T06:15:26.747Z,73.72
2022-10-18T06:18:32.276Z,66.18
2022-10-18T06:21:37.905Z,73.03
2022-10-18T06:24:43.205Z,69.30
2022-10-18T06:27:48.906Z,71.80
2022-10-18T06:30:54.721Z,77.03
2022-10-18T06:34:00.276Z,125.95
2022-10-18T06:37:05.772Z,72.88
2022-10-18T06:40:11.774Z,68.65
2022-10-18T06:43:20.955Z,63.30
2022-10-18T06:46:27.486Z,60.92
2022-10-18T06:49:33.352Z,64.28
2022-10-18T06:52:39.047Z,61.67
2022-10-18T06:55:44.611Z,63.80
2022-10-18T06:58:50.392Z,69.80
2022-10-18T07:01:56.374Z,62.15
2022-10-18T07:05:01.414Z,72.28
2022-10-18T07:08:07.202Z,76.18
2022-10-18T07:11:20.552Z,96.75
2022-10-18T07:14:29.059Z,82.75
2022-10-18T07:17:35.454Z,86.45
2022-10-18T07:20:41.213Z,86.15
2022-10-18T07:23:47.373Z,94.80
2022-10-18T07:26:52.724Z,98.85
2022-10-18T07:29:58.624Z,101.30
2022-10-18T07:33:04.010Z,99.13
2022-10-18T07:36:11.092Z,96.07
2022-10-18T07:39:16.929Z,105.90
2022-10-18T07:42:22.313Z,103.53
2022-10-18T07:45:27.894Z,96.30
2022-10-18T07:48:33.319Z,96.45
2022-10-18T07:51:39.387Z,98.53
2022-10-18T07:54:44.803Z,100.80
2022-10-18T07:57:50.277Z,113.07
2022-10-18T08:00:55.959Z,98.50
2022-10-18T08:04:06.301Z,105.65
2022-10-18T08:07:12.990Z,95.20
2022-10-18T08:10:18.877Z,91.82
2022-10-18T08:13:24.909Z,97.20
2022-10-18T08:19:41.935Z,87.05
2022-10-18T08:26:11.128Z,83.18
2022-10-18T08:29:23.885Z,79.55
2022-10-18T08:32:31.715Z,80.25
2022-10-18T08:35:38.049Z,78.53
2022-10-18T08:38:44.251Z,71.55
2022-10-18T08:41:55.313Z,72.38
2022-10-18T08:45:08.244Z,72.70
2022-10-18T08:48:33.251Z,64.50
2022-10-18T08:51:49.917Z,63.38
2022-10-18T08:55:22.324Z,82.70
2022-10-18T08:58:32.136Z,62.88
2022-10-18T09:02:02.216Z,73.50
2022-10-18T09:05:31.709Z,59.05
2022-10-18T09:09:15.664Z,58.00
2022-10-18T09:12:27.180Z,53.58
2022-10-18T09:16:13.967Z,53.35
2022-10-18T09:19:43.909Z,45.97
2022-10-18T09:23:13.512Z,43.08
2022-10-18T09:26:21.883Z,68.65
2022-10-18T09:29:38.298Z,47.80
2022-10-18T09:33:02.247Z,49.28
2022-10-18T09:36:17.950Z,45.88
2022-10-18T09:39:38.120Z,51.42
2022-10-18T09:43:02.144Z,45.83
2022-10-18T09:46:09.078Z,47.63
2022-10-18T09:49:20.496Z,47.30
2022-10-18T09:52:45.686Z,46.35
2022-10-18T09:55:57.873Z,38.10
2022-10-18T09:59:04.462Z,39.72
2022-10-18T10:02:16.229Z,35.60
2022-10-18T10:05:21.653Z,34.20
2022-10-18T10:08:36.511Z,33.22
2022-10-18T10:11:52.593Z,31.20
2022-10-18T10:15:23.507Z,42.50
2022-10-18T10:18:36.347Z,45.08
2022-10-18T10:21:41.732Z,38.40
2022-10-18T10:24:51.962Z,35.70
2022-10-18T10:28:16.979Z,41.30
2022-10-18T10:31:25.745Z,38.97
2022-10-18T10:34:32.260Z,46.05
2022-10-18T10:37:38.397Z,45.85
2022-10-18T10:40:53.898Z,45.45
2022-10-18T10:44:04.156Z,41.20
2022-10-18T10:47:09.610Z,40.53
2022-10-18T10:50:27.380Z,44.60
2022-10-18T10:53:39.118Z,53.67
2022-10-18T10:57:05.324Z,48.10
2022-10-18T11:00:36.765Z,49.80
2022-10-18T11:03:51.167Z,54.38
2022-10-18T11:07:02.678Z,52.92
2022-10-18T11:10:15.870Z,56.58
2022-10-18T11:13:50.012Z,59.15
2022-10-18T11:17:30.281Z,57.40
2022-10-18T11:20:40.699Z,59.90
2022-10-18T11:23:46.433Z,54.10
2022-10-18T11:27:16.971Z,57.35
2022-10-18T11:30:43.100Z,62.72
2022-10-18T11:34:08.133Z,64.25
2022-10-18T11:37:37.545Z,57.60
2022-10-18T11:41:22.962Z,68.72
2022-10-18T11:44:37.497Z,68.15
2022-10-18T11:47:57.356Z,68.45
2022-10-18T11:51:55.949Z,65.60
2022-10-18T11:55:15.541Z,72.07
2022-10-18T11:58:45.085Z,67.95
2022-10-18T12:01:59.249Z,70.22
2022-10-18T12:05:24.294Z,68.13
2022-10-18T12:08:40.534Z,71.18
2022-10-18T12:12:14.591Z,75.10
2022-10-18T12:15:28.905Z,66.78
2022-10-18T12:18:39.798Z,66.30
2022-10-18T12:21:46.157Z,68.57
2022-10-18T12:24:52.126Z,63.92
2022-10-18T12:28:16.733Z,67.70
2022-10-18T12:31:34.352Z,62.85
2022-10-18T12:34:52.025Z,59.17
2022-10-18T12:38:18.222Z,68.90
2022-10-18T12:41:28.695Z,75.55
2022-10-18T12:44:36.398Z,67.82
2022-10-18T12:47:42.021Z,65.72
2022-10-18T12:51:13.836Z,76.00
2022-10-18T12:54:25.703Z,71.82
2022-10-18T12:57:52.971Z,65.75
2022-10-18T13:01:04.443Z,59.90
2022-10-18T13:04:33.913Z,61.92
2022-10-18T13:07:43.439Z,58.15
2022-10-18T13:11:12.474Z,60.58
2022-10-18T13:14:20.800Z,61.60
2022-10-18T13:18:25.332Z,52.63
2022-10-18T13:21:49.087Z,60.35
2022-10-18T13:25:25.647Z,63.08
2022-10-18T13:28:59.430Z,57.83
2022-10-18T13:32:34.538Z,71.22
2022-10-18T13:36:04.483Z,60.40
2022-10-18T13:39:37.087Z,55.08
2022-10-18T13:42:42.866Z,52.70
2022-10-18T13:46:13.496Z,60.40
2022-10-18T13:49:59.212Z,54.55
2022-10-18T13:53:53.626Z,50.55
2022-10-18T13:57:26.825Z,49.53
2022-10-18T14:01:11.485Z,52.30
2022-10-18T14:04:31.900Z,50.95
2022-10-18T14:08:00.758Z,52.13
2022-10-18T14:11:17.487Z,49.42
2022-10-18T14:14:46.425Z,46.67
2022-10-18T14:17:53.409Z,37.40
2022-10-18T14:21:21.935Z,45.03
2022-10-18T14:24:30.145Z,48.08
2022-10-18T14:28:11.409Z,48.60
2022-10-18T14:31:20.860Z,46.60
2022-10-18T14:34:44.858Z,50.70
2022-10-18T14:37:53.754Z,48.10
2022-10-18T14:41:46.730Z,50.40
2022-10-18T14:44:54.318Z,48.33
2022-10-18T14:48:24.079Z,44.83
2022-10-18T14:51:34.423Z,45.90
2022-10-18T14:54:59.059Z,51.80
2022-10-18T14:58:15.439Z,43.00
2022-10-18T15:01:39.670Z,44.50
2022-10-18T15:04:47.114Z,52.17
2022-10-18T15:08:10.564Z,51.58
2022-10-18T15:11:35.394Z,49.38
2022-10-18T15:14:43.155Z,51.70
2022-10-18T15:18:07.529Z,51.63
2022-10-18T15:21:24.426Z,49.28
2022-10-18T15:24:55.915Z,45.88
2022-10-18T15:28:02.320Z,45.05
2022-10-18T15:31:35.790Z,51.45
2022-10-18T15:34:41.412Z,43.38
2022-10-18T15:38:08.504Z,50.20
2022-10-18T15:41:49.308Z,47.55
2022-10-18T15:45:13.511Z,48.90
2022-10-18T15:48:30.870Z,51.55
2022-10-18T15:52:07.321Z,47.58
2022-10-18T15:55:30.889Z,49.30
2022-10-18T15:59:05.230Z,45.17
2022-10-18T16:02:14.550Z,49.90
2022-10-18T16:05:41.120Z,44.65
2022-10-18T16:08:52.578Z,46.78
2022-10-18T16:11:59.061Z,43.10
2022-10-18T16:15:05.002Z,53.00
2022-10-18T16:18:20.921Z,46.53
2022-10-18T16:21:35.385Z,50.95
2022-10-18T16:24:41.154Z,47.35
2022-10-18T16:27:46.378Z,54.65
2022-10-18T16:30:58.548Z,58.28
2022-10-18T16:34:05.401Z,53.22
2022-10-18T16:37:11.834Z,50.00
2022-10-18T16:40:26.474Z,44.63
2022-10-18T16:43:35.050Z,46.45
2022-10-18T16:46:41.480Z,48.00
2022-10-18T16:49:47.453Z,55.45
2022-10-18T16:52:52.912Z,42.58
2022-10-18T16:56:00.948Z,48.85
2022-10-18T16:59:07.002Z,54.85
2022-10-18T17:02:12.459Z,52.80
2022-10-18T17:05:19.308Z,52.28
2022-10-18T17:08:27.749Z,51.42
2022-10-18T17:11:33.341Z,51.35
2022-10-18T17:14:38.802Z,56.17
2022-10-18T17:17:44.416Z,55.83
2022-10-18T17:20:51.017Z,59.72
2022-10-18T17:24:06.413Z,52.08
2022-10-18T17:27:12.351Z,56.10
2022-10-18T17:30:18.302Z,58.03
2022-10-18T17:33:23.885Z,54.42
2022-10-18T17:36:32.924Z,48.80
2022-10-18T17:39:38.590Z,56.67
2022-10-18T17:42:44.026Z,59.42
2022-10-18T17:45:56.834Z,56.72
2022-10-18T17:49:02.910Z,54.60
2022-10-18T17:52:09.057Z,59.20
2022-10-18T17:55:16.283Z,52.45
2022-10-18T17:58:21.776Z,57.67
2022-10-18T18:01:27.514Z,52.45
2022-10-18T18:04:32.758Z,62.78
2022-10-18T18:07:38.378Z,56.20
2022-10-18T18:10:44.756Z,57.33
2022-10-18T18:13:50.613Z,54.92
2022-10-18T18:16:56.749Z,60.97
2022-10-18T18:20:02.846Z,61.85
2022-10-18T18:23:08.607Z,63.30
2022-10-18T18:26:15.741Z,62.38
2022-10-18T18:29:23.554Z,60.50
2022-10-18T18:32:28.815Z,66.38
2022-10-18T18:35:34.419Z,62.00
2022-10-18T18:38:42.951Z,63.95
2022-10-18T18:41:50.691Z,67.57
2022-10-18T18:44:55.908Z,64.07
2022-10-18T18:48:01.513Z,73.47
2022-10-18T18:51:11.844Z,63.22
2022-10-18T18:54:17.549Z,63.13
2022-10-18T18:57:22.845Z,74.78
2022-10-18T19:00:28.908Z,65.25
2022-10-18T19:03:34.754Z,67.65
2022-10-18T19:06:43.190Z,78.20
2022-10-18T19:09:51.095Z,69.78
2022-10-18T19:12:56.801Z,70.75
2022-10-18T19:16:25.632Z,78.22
2022-10-18T19:19:32.413Z,71.35
2022-10-18T19:22:38.979Z,81.25
2022-10-18T19:25:45.911Z,71.32
2022-10-18T19:28:51.757Z,70.65
2022-10-18T19:32:01.245Z,75.38
2022-10-18T19:35:08.077Z,76.43
2022-10-18T19:38:14.681Z,70.22
2022-10-18T19:41:21.603Z,64.35
2022-10-18T19:44:31.461Z,70.22
2022-10-18T19:47:39.678Z,73.43
2022-10-18T19:50:46.117Z,80.97
2022-10-18T19:53:55.483Z,75.20
2022-10-18T19:57:02.847Z,89.30
2022-10-18T20:00:11.338Z,74.57
2022-10-18T20:03:18.235Z,78.95
2022-10-18T20:06:26.084Z,77.97
2022-10-18T20:09:33.494Z,82.40
2022-10-18T20:12:40.116Z,75.95
2022-10-18T20:15:51.160Z,77.88
2022-10-18T20:18:59.714Z,78.72
2022-10-18T20:22:09.407Z,77.95
2022-10-18T20:25:16.222Z,83.80
2022-10-18T20:28:24.024Z,82.10
2022-10-18T20:31:39.417Z,77.57
2022-10-18T20:34:46.070Z,88.68
2022-10-18T20:37:52.396Z,93.10
2022-10-18T20:41:31.784Z,79.57
2022-10-18T20:44:41.256Z,85.65
2022-10-18T20:47:47.312Z,93.43
2022-10-18T20:50:53.116Z,78.05
2022-10-18T20:54:00.114Z,80.95
2022-10-18T20:57:06.233Z,78.43
2022-10-18T21:00:13.514Z,87.85
2022-10-18T21:03:19.165Z,80.40
2022-10-18T21:06:30.596Z,78.38
2022-10-18T21:12:41.515Z,79.18
2022-10-18T21:15:54.608Z,83.53
2022-10-18T21:19:08.965Z,83.72
2022-10-18T21:22:14.321Z,81.88
2022-10-18T21:25:20.101Z,80.55
2022-10-18T21:28:25.323Z,77.13
2022-10-18T21:31:36.539Z,81.80
2022-10-18T21:34:41.965Z,79.72
2022-10-18T21:37:47.523Z,78.80
2022-10-18T21:40:53.853Z,79.55
2022-10-18T21:43:59.852Z,87.13
2022-10-18T21:47:05.368Z,74.15
2022-10-18T21:50:11.020Z,73.85
2022-10-18T21:53:16.978Z,75.00
2022-10-18T21:56:33.447Z,75.78
2022-10-18T21:59:39.463Z,77.03
2022-10-18T22:02:44.836Z,76.40
2022-10-18T22:06:07.860Z,76.15
2022-10-18T22:09:13.506Z,73.03
2022-10-18T22:12:19.130Z,80.47
2022-10-18T22:15:24.499Z,77.65
2022-10-18T22:18:30.675Z,79.65
2022-10-18T22:21:36.115Z,80.13
2022-10-18T22:24:41.886Z,91.50
2022-10-18T22:27:47.612Z,77.47
2022-10-18T22:30:53.309Z,88.03
2022-10-18T22:34:03.537Z,86.55
2022-10-18T22:37:08.950Z,85.05
2022-10-18T22:40:14.481Z,77.43
2022-10-18T22:43:20.319Z,84.25
2022-10-18T22:46:26.528Z,72.88
2022-10-18T22:49:32.366Z,73.65
2022-10-18T22:52:37.708Z,82.22
2022-10-18T22:55:43.343Z,87.85
2022-10-18T22:58:49.380Z,71.15
2022-10-18T23:01:55.134Z,74.38
2022-10-18T23:05:00.645Z,77.63
2022-10-18T23:08:08.479Z,78.88
2022-10-18T23:11:14.593Z,74.53
2022-10-18T23:14:20.842Z,75.25
2022-10-18T23:17:26.380Z,76.65
2022-10-18T23:20:32.254Z,75.60
2022-10-18T23:23:39.974Z,77.75
2022-10-18T23:26:45.179Z,74.68
2022-10-18T23:29:50.672Z,80.32
2022-10-18T23:32:56.698Z,79.82
2022-10-18T23:36:02.258Z,72.53
2022-10-18T23:39:07.905Z,84.88
2022-10-18T23:42:13.683Z,81.82
2022-10-18T23:45:19.478Z,90.20
2022-10-18T23:48:25.467Z,86.88
2022-10-18T23:51:31.211Z,82.10
2022-10-18T23:54:36.869Z,81.25
2022-10-18T23:57:42.310Z,80.55
